sensor_id;sensor_type;location;lat;lon;timestamp;P1;durP1;ratioP1;P2;durP2;ratioP2
20986;SDS011;10652;50.306;8.570;2024-03-06T00:02:19;8.85;;;7.10;;
20986;SDS011;10652;50.306;8.570;2024-03-06T00:06:21;8.60;;;6.18;;
20986;SDS011;10652;50.306;8.570;2024-03-06T00:10:23;10.55;;;7.55;;
20986;SDS011;10652;50.306;8.570;2024-03-06T00:14:25;11.07;;;7.15;;
20986;SDS011;10652;50.306;8.570;2024-03-06T00:18:27;8.88;;;6.82;;
20986;SDS011;10652;50.306;8.570;2024-03-06T00:22:30;11.18;;;7.47;;
20986;SDS011;10652;50.306;8.570;2024-03-06T00:26:32;10.77;;;6.97;;
20986;SDS011;10652;50.306;8.570;2024-03-06T00:30:34;8.88;;;6.65;;
20986;SDS011;10652;50.306;8.570;2024-03-06T00:34:36;7.63;;;5.78;;
20986;SDS011;10652;50.306;8.570;2024-03-06T00:38:38;10.27;;;6.30;;
20986;SDS011;10652;50.306;8.570;2024-03-06T00:42:40;9.65;;;6.32;;
20986;SDS011;10652;50.306;8.570;2024-03-06T00:46:43;9.95;;;6.32;;
20986;SDS011;10652;50.306;8.570;2024-03-06T00:50:45;15.75;;;7.85;;
20986;SDS011;10652;50.306;8.570;2024-03-06T00:54:47;12.75;;;6.85;;
20986;SDS011;10652;50.306;8.570;2024-03-06T00:58:52;8.68;;;6.43;;
20986;SDS011;10652;50.306;8.570;2024-03-06T01:02:55;9.88;;;6.50;;
20986;SDS011;10652;50.306;8.570;2024-03-06T01:06:57;8.55;;;6.07;;
20986;SDS011;10652;50.306;8.570;2024-03-06T01:11:00;9.75;;;6.05;;
20986;SDS011;10652;50.306;8.570;2024-03-06T01:15:02;7.50;;;5.70;;
20986;SDS011;10652;50.306;8.570;2024-03-06T01:19:05;10.23;;;6.57;;
20986;SDS011;10652;50.306;8.570;2024-03-06T01:23:07;8.45;;;5.80;;
20986;SDS011;10652;50.306;8.570;2024-03-06T01:27:10;7.18;;;5.35;;
20986;SDS011;10652;50.306;8.570;2024-03-06T01:31:12;8.07;;;5.65;;
20986;SDS011;10652;50.306;8.570;2024-03-06T01:35:14;8.25;;;6.07;;
20986;SDS011;10652;50.306;8.570;2024-03-06T01:39:17;8.50;;;5.68;;
20986;SDS011;10652;50.306;8.570;2024-03-06T01:43:19;8.07;;;5.63;;
20986;SDS011;10652;50.306;8.570;2024-03-06T01:47:23;8.07;;;5.60;;
20986;SDS011;10652;50.306;8.570;2024-03-06T01:51:26;7.70;;;5.47;;
20986;SDS011;10652;50.306;8.570;2024-03-06T01:55:28;7.68;;;5.20;;
20986;SDS011;10652;50.306;8.570;2024-03-06T01:59:30;7.78;;;5.75;;
20986;SDS011;10652;50.306;8.570;2024-03-06T02:03:38;6.88;;;5.50;;
20986;SDS011;10652;50.306;8.570;2024-03-06T02:07:41;8.93;;;5.95;;
20986;SDS011;10652;50.306;8.570;2024-03-06T02:11:46;8.18;;;5.90;;
20986;SDS011;10652;50.306;8.570;2024-03-06T02:15:48;7.10;;;5.68;;
20986;SDS011;10652;50.306;8.570;2024-03-06T02:19:51;7.43;;;5.43;;
20986;SDS011;10652;50.306;8.570;2024-03-06T02:23:53;7.93;;;6.03;;
20986;SDS011;10652;50.306;8.570;2024-03-06T02:27:55;8.18;;;5.25;;
20986;SDS011;10652;50.306;8.570;2024-03-06T02:31:58;6.95;;;5.10;;
20986;SDS011;10652;50.306;8.570;2024-03-06T02:36:00;6.43;;;5.05;;
20986;SDS011;10652;50.306;8.570;2024-03-06T02:40:02;7.05;;;5.65;;
20986;SDS011;10652;50.306;8.570;2024-03-06T02:44:05;6.95;;;5.45;;
20986;SDS011;10652;50.306;8.570;2024-03-06T02:48:09;8.07;;;5.50;;
20986;SDS011;10652;50.306;8.570;2024-03-06T02:52:12;7.07;;;5.68;;
20986;SDS011;10652;50.306;8.570;2024-03-06T02:56:20;6.45;;;4.90;;
20986;SDS011;10652;50.306;8.570;2024-03-06T03:00:23;6.60;;;5.20;;
20986;SDS011;10652;50.306;8.570;2024-03-06T03:04:25;8.02;;;5.65;;
20986;SDS011;10652;50.306;8.570;2024-03-06T03:08:28;9.43;;;6.00;;
20986;SDS011;10652;50.306;8.570;2024-03-06T03:12:30;8.50;;;6.00;;
20986;SDS011;10652;50.306;8.570;2024-03-06T03:16:32;7.85;;;5.72;;
20986;SDS011;10652;50.306;8.570;2024-03-06T03:20:35;6.95;;;5.57;;
20986;SDS011;10652;50.306;8.570;2024-03-06T03:24:38;7.38;;;5.63;;
20986;SDS011;10652;50.306;8.570;2024-03-06T03:28:40;7.68;;;5.53;;
20986;SDS011;10652;50.306;8.570;2024-03-06T03:32:42;6.63;;;4.95;;
20986;SDS011;10652;50.306;8.570;2024-03-06T03:36:44;8.98;;;5.47;;
20986;SDS011;10652;50.306;8.570;2024-03-06T03:40:47;6.07;;;4.95;;
20986;SDS011;10652;50.306;8.570;2024-03-06T03:44:49;8.25;;;5.53;;
20986;SDS011;10652;50.306;8.570;2024-03-06T03:48:51;7.38;;;5.05;;
20986;SDS011;10652;50.306;8.570;2024-03-06T03:52:53;7.60;;;5.50;;
20986;SDS011;10652;50.306;8.570;2024-03-06T03:56:55;5.45;;;4.80;;
20986;SDS011;10652;50.306;8.570;2024-03-06T04:00:57;6.25;;;4.75;;
20986;SDS011;10652;50.306;8.570;2024-03-06T04:05:00;7.65;;;5.18;;
20986;SDS011;10652;50.306;8.570;2024-03-06T04:09:02;6.57;;;5.55;;
20986;SDS011;10652;50.306;8.570;2024-03-06T04:13:06;7.90;;;5.82;;
20986;SDS011;10652;50.306;8.570;2024-03-06T04:17:09;6.65;;;5.15;;
20986;SDS011;10652;50.306;8.570;2024-03-06T04:21:11;9.32;;;5.43;;
20986;SDS011;10652;50.306;8.570;2024-03-06T04:25:13;7.65;;;5.57;;
20986;SDS011;10652;50.306;8.570;2024-03-06T04:29:15;6.68;;;5.35;;
20986;SDS011;10652;50.306;8.570;2024-03-06T04:33:18;7.15;;;5.10;;
20986;SDS011;10652;50.306;8.570;2024-03-06T04:37:20;7.20;;;5.60;;
20986;SDS011;10652;50.306;8.570;2024-03-06T04:41:22;7.60;;;5.80;;
20986;SDS011;10652;50.306;8.570;2024-03-06T04:45:25;8.10;;;5.43;;
20986;SDS011;10652;50.306;8.570;2024-03-06T04:49:27;7.07;;;5.80;;
20986;SDS011;10652;50.306;8.570;2024-03-06T04:53:29;8.18;;;5.43;;
20986;SDS011;10652;50.306;8.570;2024-03-06T04:57:31;7.45;;;5.60;;
20986;SDS011;10652;50.306;8.570;2024-03-06T05:01:33;7.00;;;5.57;;
20986;SDS011;10652;50.306;8.570;2024-03-06T05:05:35;7.05;;;5.90;;
20986;SDS011;10652;50.306;8.570;2024-03-06T05:09:55;9.65;;;6.40;;
20986;SDS011;10652;50.306;8.570;2024-03-06T05:14:18;11.60;;;7.07;;
20986;SDS011;10652;50.306;8.570;2024-03-06T05:18:38;9.60;;;6.72;;
20986;SDS011;10652;50.306;8.570;2024-03-06T05:22:57;6.53;;;5.25;;
20986;SDS011;10652;50.306;8.570;2024-03-06T05:27:17;6.97;;;5.07;;
20986;SDS011;10652;50.306;8.570;2024-03-06T05:31:37;7.18;;;5.13;;
20986;SDS011;10652;50.306;8.570;2024-03-06T05:35:56;7.00;;;4.85;;
20986;SDS011;10652;50.306;8.570;2024-03-06T05:40:17;6.40;;;4.95;;
20986;SDS011;10652;50.306;8.570;2024-03-06T05:44:37;9.13;;;5.32;;
20986;SDS011;10652;50.306;8.570;2024-03-06T05:48:56;7.80;;;5.35;;
20986;SDS011;10652;50.306;8.570;2024-03-06T05:53:16;8.05;;;6.70;;
20986;SDS011;10652;50.306;8.570;2024-03-06T05:57:35;8.73;;;6.15;;
20986;SDS011;10652;50.306;8.570;2024-03-06T06:01:55;14.65;;;10.73;;
20986;SDS011;10652;50.306;8.570;2024-03-06T06:05:57;8.68;;;6.93;;
20986;SDS011;10652;50.306;8.570;2024-03-06T06:10:00;9.57;;;6.97;;
20986;SDS011;10652;50.306;8.570;2024-03-06T06:14:03;11.43;;;8.18;;
20986;SDS011;10652;50.306;8.570;2024-03-06T06:18:05;9.32;;;6.97;;
20986;SDS011;10652;50.306;8.570;2024-03-06T06:22:07;8.35;;;5.95;;
20986;SDS011;10652;50.306;8.570;2024-03-06T06:26:10;7.72;;;5.50;;
20986;SDS011;10652;50.306;8.570;2024-03-06T06:30:12;7.95;;;5.93;;
20986;SDS011;10652;50.306;8.570;2024-03-06T06:34:15;9.77;;;5.72;;
20986;SDS011;10652;50.306;8.570;2024-03-06T06:38:17;7.80;;;5.90;;
20986;SDS011;10652;50.306;8.570;2024-03-06T06:42:19;9.50;;;7.65;;
20986;SDS011;10652;50.306;8.570;2024-03-06T06:46:21;10.45;;;7.25;;
20986;SDS011;10652;50.306;8.570;2024-03-06T06:50:23;10.23;;;6.78;;
20986;SDS011;10652;50.306;8.570;2024-03-06T06:54:28;10.43;;;7.55;;
20986;SDS011;10652;50.306;8.570;2024-03-06T06:58:30;14.63;;;9.73;;
20986;SDS011;10652;50.306;8.570;2024-03-06T07:02:32;13.63;;;8.88;;
20986;SDS011;10652;50.306;8.570;2024-03-06T07:06:34;10.15;;;7.45;;
20986;SDS011;10652;50.306;8.570;2024-03-06T07:10:36;11.18;;;7.93;;
20986;SDS011;10652;50.306;8.570;2024-03-06T07:14:38;10.32;;;7.20;;
20986;SDS011;10652;50.306;8.570;2024-03-06T07:18:40;8.93;;;6.78;;
20986;SDS011;10652;50.306;8.570;2024-03-06T07:22:42;12.10;;;8.02;;
20986;SDS011;10652;50.306;8.570;2024-03-06T07:26:44;11.05;;;8.07;;
20986;SDS011;10652;50.306;8.570;2024-03-06T07:30:47;13.00;;;9.13;;
20986;SDS011;10652;50.306;8.570;2024-03-06T07:34:49;14.00;;;9.63;;
20986;SDS011;10652;50.306;8.570;2024-03-06T07:38:51;10.55;;;8.43;;
20986;SDS011;10652;50.306;8.570;2024-03-06T07:42:53;13.30;;;9.48;;
20986;SDS011;10652;50.306;8.570;2024-03-06T07:46:55;13.93;;;9.63;;
20986;SDS011;10652;50.306;8.570;2024-03-06T07:50:57;15.07;;;9.40;;
20986;SDS011;10652;50.306;8.570;2024-03-06T07:54:59;15.77;;;9.77;;
20986;SDS011;10652;50.306;8.570;2024-03-06T07:59:01;13.20;;;9.95;;
20986;SDS011;10652;50.306;8.570;2024-03-06T08:03:04;13.88;;;9.85;;
20986;SDS011;10652;50.306;8.570;2024-03-06T08:07:06;12.98;;;10.00;;
20986;SDS011;10652;50.306;8.570;2024-03-06T08:11:08;12.55;;;9.82;;
20986;SDS011;10652;50.306;8.570;2024-03-06T08:15:13;14.77;;;10.73;;
20986;SDS011;10652;50.306;8.570;2024-03-06T08:19:16;14.45;;;10.68;;
20986;SDS011;10652;50.306;8.570;2024-03-06T08:23:18;19.02;;;10.18;;
20986;SDS011;10652;50.306;8.570;2024-03-06T08:27:20;13.60;;;10.27;;
20986;SDS011;10652;50.306;8.570;2024-03-06T08:31:22;13.05;;;10.43;;
20986;SDS011;10652;50.306;8.570;2024-03-06T08:35:24;15.68;;;10.98;;
20986;SDS011;10652;50.306;8.570;2024-03-06T08:39:27;14.43;;;10.35;;
20986;SDS011;10652;50.306;8.570;2024-03-06T08:43:29;13.07;;;10.27;;
20986;SDS011;10652;50.306;8.570;2024-03-06T08:47:31;13.52;;;10.40;;
20986;SDS011;10652;50.306;8.570;2024-03-06T08:51:33;13.60;;;10.85;;
20986;SDS011;10652;50.306;8.570;2024-03-06T08:55:35;14.88;;;10.82;;
20986;SDS011;10652;50.306;8.570;2024-03-06T08:59:37;17.23;;;11.20;;
20986;SDS011;10652;50.306;8.570;2024-03-06T09:03:39;13.63;;;10.10;;
20986;SDS011;10652;50.306;8.570;2024-03-06T09:07:41;14.35;;;10.48;;
20986;SDS011;10652;50.306;8.570;2024-03-06T09:11:44;14.82;;;10.90;;
20986;SDS011;10652;50.306;8.570;2024-03-06T09:15:46;16.45;;;11.55;;
20986;SDS011;10652;50.306;8.570;2024-03-06T09:19:48;16.02;;;11.70;;
20986;SDS011;10652;50.306;8.570;2024-03-06T09:24:08;17.08;;;12.60;;
20986;SDS011;10652;50.306;8.570;2024-03-06T09:28:11;21.63;;;15.55;;
20986;SDS011;10652;50.306;8.570;2024-03-06T09:32:13;20.98;;;15.27;;
20986;SDS011;10652;50.306;8.570;2024-03-06T09:40:23;23.30;;;16.65;;
20986;SDS011;10652;50.306;8.570;2024-03-06T09:44:25;20.65;;;15.20;;
20986;SDS011;10652;50.306;8.570;2024-03-06T09:48:28;21.88;;;15.75;;
20986;SDS011;10652;50.306;8.570;2024-03-06T09:52:31;22.45;;;16.10;;
20986;SDS011;10652;50.306;8.570;2024-03-06T09:56:34;22.73;;;16.27;;
20986;SDS011;10652;50.306;8.570;2024-03-06T10:00:36;23.65;;;16.52;;
20986;SDS011;10652;50.306;8.570;2024-03-06T10:04:38;25.25;;;17.27;;
20986;SDS011;10652;50.306;8.570;2024-03-06T10:08:44;23.85;;;17.15;;
20986;SDS011;10652;50.306;8.570;2024-03-06T10:12:48;24.67;;;17.75;;
20986;SDS011;10652;50.306;8.570;2024-03-06T10:17:00;29.15;;;19.05;;
20986;SDS011;10652;50.306;8.570;2024-03-06T10:21:03;27.02;;;19.17;;
20986;SDS011;10652;50.306;8.570;2024-03-06T10:25:07;27.65;;;18.33;;
20986;SDS011;10652;50.306;8.570;2024-03-06T10:29:13;27.60;;;18.45;;
20986;SDS011;10652;50.306;8.570;2024-03-06T10:33:17;24.15;;;16.13;;
20986;SDS011;10652;50.306;8.570;2024-03-06T10:37:20;17.60;;;12.25;;
20986;SDS011;10652;50.306;8.570;2024-03-06T10:41:25;18.17;;;13.90;;
20986;SDS011;10652;50.306;8.570;2024-03-06T10:45:39;17.42;;;12.45;;
20986;SDS011;10652;50.306;8.570;2024-03-06T10:50:01;19.08;;;13.15;;
20986;SDS011;10652;50.306;8.570;2024-03-06T10:54:06;14.20;;;10.40;;
20986;SDS011;10652;50.306;8.570;2024-03-06T10:58:11;17.08;;;12.68;;
20986;SDS011;10652;50.306;8.570;2024-03-06T11:02:13;15.00;;;11.05;;
20986;SDS011;10652;50.306;8.570;2024-03-06T11:06:17;16.70;;;12.75;;
20986;SDS011;10652;50.306;8.570;2024-03-06T11:10:32;12.63;;;9.73;;
20986;SDS011;10652;50.306;8.570;2024-03-06T11:14:36;12.43;;;8.57;;
20986;SDS011;10652;50.306;8.570;2024-03-06T11:18:41;12.60;;;8.85;;
20986;SDS011;10652;50.306;8.570;2024-03-06T11:27:04;12.98;;;8.77;;
20986;SDS011;10652;50.306;8.570;2024-03-06T11:31:09;13.50;;;10.00;;
20986;SDS011;10652;50.306;8.570;2024-03-06T11:35:17;13.18;;;9.65;;
20986;SDS011;10652;50.306;8.570;2024-03-06T11:39:20;12.20;;;8.60;;
20986;SDS011;10652;50.306;8.570;2024-03-06T11:43:25;13.25;;;9.88;;
20986;SDS011;10652;50.306;8.570;2024-03-06T11:47:29;13.88;;;10.43;;
20986;SDS011;10652;50.306;8.570;2024-03-06T11:51:31;13.45;;;9.82;;
20986;SDS011;10652;50.306;8.570;2024-03-06T11:55:34;13.85;;;10.23;;
20986;SDS011;10652;50.306;8.570;2024-03-06T11:59:36;12.68;;;9.35;;
20986;SDS011;10652;50.306;8.570;2024-03-06T12:03:41;12.02;;;9.30;;
20986;SDS011;10652;50.306;8.570;2024-03-06T12:07:48;14.45;;;10.40;;
20986;SDS011;10652;50.306;8.570;2024-03-06T12:11:51;15.80;;;11.35;;
20986;SDS011;10652;50.306;8.570;2024-03-06T12:15:53;14.55;;;10.85;;
20986;SDS011;10652;50.306;8.570;2024-03-06T12:19:55;16.40;;;11.27;;
20986;SDS011;10652;50.306;8.570;2024-03-06T12:24:04;17.23;;;13.20;;
20986;SDS011;10652;50.306;8.570;2024-03-06T12:28:07;19.20;;;15.18;;
20986;SDS011;10652;50.306;8.570;2024-03-06T12:32:16;14.50;;;10.68;;
20986;SDS011;10652;50.306;8.570;2024-03-06T12:36:24;15.50;;;10.65;;
20986;SDS011;10652;50.306;8.570;2024-03-06T12:40:27;15.25;;;10.27;;
20986;SDS011;10652;50.306;8.570;2024-03-06T12:44:30;14.82;;;11.20;;
20986;SDS011;10652;50.306;8.570;2024-03-06T12:48:32;13.30;;;9.82;;
20986;SDS011;10652;50.306;8.570;2024-03-06T12:52:34;13.98;;;9.55;;
20986;SDS011;10652;50.306;8.570;2024-03-06T12:56:36;11.60;;;9.02;;
20986;SDS011;10652;50.306;8.570;2024-03-06T13:00:39;16.60;;;10.18;;
20986;SDS011;10652;50.306;8.570;2024-03-06T13:04:42;15.25;;;12.10;;
20986;SDS011;10652;50.306;8.570;2024-03-06T13:08:44;15.18;;;11.43;;
20986;SDS011;10652;50.306;8.570;2024-03-06T13:12:46;15.55;;;11.73;;
20986;SDS011;10652;50.306;8.570;2024-03-06T13:16:48;14.10;;;10.38;;
20986;SDS011;10652;50.306;8.570;2024-03-06T13:20:50;15.35;;;10.48;;
20986;SDS011;10652;50.306;8.570;2024-03-06T13:24:52;13.50;;;10.52;;
20986;SDS011;10652;50.306;8.570;2024-03-06T13:28:54;12.75;;;10.30;;
20986;SDS011;10652;50.306;8.570;2024-03-06T13:32:57;13.93;;;10.60;;
20986;SDS011;10652;50.306;8.570;2024-03-06T13:37:00;14.45;;;10.40;;
20986;SDS011;10652;50.306;8.570;2024-03-06T13:41:02;14.30;;;10.32;;
20986;SDS011;10652;50.306;8.570;2024-03-06T13:45:05;15.18;;;10.93;;
20986;SDS011;10652;50.306;8.570;2024-03-06T13:53:40;15.27;;;11.13;;
20986;SDS011;10652;50.306;8.570;2024-03-06T13:57:43;16.30;;;11.23;;
20986;SDS011;10652;50.306;8.570;2024-03-06T14:01:45;16.73;;;11.65;;
20986;SDS011;10652;50.306;8.570;2024-03-06T14:05:47;14.98;;;11.05;;
20986;SDS011;10652;50.306;8.570;2024-03-06T14:09:50;16.38;;;11.63;;
20986;SDS011;10652;50.306;8.570;2024-03-06T14:13:52;17.20;;;11.65;;
20986;SDS011;10652;50.306;8.570;2024-03-06T14:17:54;14.90;;;10.75;;
20986;SDS011;10652;50.306;8.570;2024-03-06T14:21:57;13.48;;;10.13;;
20986;SDS011;10652;50.306;8.570;2024-03-06T14:26:04;16.60;;;10.45;;
20986;SDS011;10652;50.306;8.570;2024-03-06T14:30:06;15.88;;;11.77;;
20986;SDS011;10652;50.306;8.570;2024-03-06T14:34:09;15.13;;;10.95;;
20986;SDS011;10652;50.306;8.570;2024-03-06T14:38:12;14.85;;;10.40;;
20986;SDS011;10652;50.306;8.570;2024-03-06T14:42:14;15.48;;;10.70;;
20986;SDS011;10652;50.306;8.570;2024-03-06T14:46:17;13.13;;;9.27;;
20986;SDS011;10652;50.306;8.570;2024-03-06T14:50:20;14.18;;;10.15;;
20986;SDS011;10652;50.306;8.570;2024-03-06T14:54:22;14.57;;;10.48;;
20986;SDS011;10652;50.306;8.570;2024-03-06T14:58:27;14.68;;;10.30;;
20986;SDS011;10652;50.306;8.570;2024-03-06T15:02:30;13.52;;;9.45;;
20986;SDS011;10652;50.306;8.570;2024-03-06T15:06:32;14.52;;;10.10;;
20986;SDS011;10652;50.306;8.570;2024-03-06T15:10:35;13.27;;;9.50;;
20986;SDS011;10652;50.306;8.570;2024-03-06T15:14:38;15.20;;;10.63;;
20986;SDS011;10652;50.306;8.570;2024-03-06T15:18:48;15.48;;;10.95;;
20986;SDS011;10652;50.306;8.570;2024-03-06T15:22:50;14.73;;;10.45;;
20986;SDS011;10652;50.306;8.570;2024-03-06T15:26:52;15.20;;;10.82;;
20986;SDS011;10652;50.306;8.570;2024-03-06T15:30:54;16.02;;;11.80;;
20986;SDS011;10652;50.306;8.570;2024-03-06T15:34:59;15.32;;;11.25;;
20986;SDS011;10652;50.306;8.570;2024-03-06T15:39:01;14.93;;;10.95;;
20986;SDS011;10652;50.306;8.570;2024-03-06T15:43:04;14.90;;;10.82;;
20986;SDS011;10652;50.306;8.570;2024-03-06T15:47:06;14.10;;;10.75;;
20986;SDS011;10652;50.306;8.570;2024-03-06T15:51:12;15.23;;;10.45;;
20986;SDS011;10652;50.306;8.570;2024-03-06T15:55:14;16.15;;;11.38;;
20986;SDS011;10652;50.306;8.570;2024-03-06T15:59:16;15.30;;;10.88;;
20986;SDS011;10652;50.306;8.570;2024-03-06T16:03:18;16.15;;;10.88;;
20986;SDS011;10652;50.306;8.570;2024-03-06T16:07:20;17.95;;;11.55;;
20986;SDS011;10652;50.306;8.570;2024-03-06T16:11:22;16.95;;;11.75;;
20986;SDS011;10652;50.306;8.570;2024-03-06T16:15:24;16.92;;;11.88;;
20986;SDS011;10652;50.306;8.570;2024-03-06T16:19:27;18.42;;;12.63;;
20986;SDS011;10652;50.306;8.570;2024-03-06T16:23:39;16.65;;;11.77;;
20986;SDS011;10652;50.306;8.570;2024-03-06T16:27:41;15.82;;;11.50;;
20986;SDS011;10652;50.306;8.570;2024-03-06T16:31:43;17.45;;;12.38;;
20986;SDS011;10652;50.306;8.570;2024-03-06T16:35:46;15.73;;;12.02;;
20986;SDS011;10652;50.306;8.570;2024-03-06T16:39:48;19.50;;;12.55;;
20986;SDS011;10652;50.306;8.570;2024-03-06T16:43:51;17.15;;;11.63;;
20986;SDS011;10652;50.306;8.570;2024-03-06T16:47:53;18.30;;;12.13;;
20986;SDS011;10652;50.306;8.570;2024-03-06T16:52:01;16.45;;;11.88;;
20986;SDS011;10652;50.306;8.570;2024-03-06T16:56:03;18.83;;;13.23;;
20986;SDS011;10652;50.306;8.570;2024-03-06T17:00:06;21.67;;;14.55;;
20986;SDS011;10652;50.306;8.570;2024-03-06T17:04:10;19.45;;;13.55;;
20986;SDS011;10652;50.306;8.570;2024-03-06T17:08:12;23.65;;;14.25;;
20986;SDS011;10652;50.306;8.570;2024-03-06T17:12:17;22.05;;;14.90;;
20986;SDS011;10652;50.306;8.570;2024-03-06T17:16:19;23.95;;;15.30;;
20986;SDS011;10652;50.306;8.570;2024-03-06T17:20:21;21.95;;;14.65;;
20986;SDS011;10652;50.306;8.570;2024-03-06T17:24:24;23.08;;;14.75;;
20986;SDS011;10652;50.306;8.570;2024-03-06T17:28:26;22.55;;;15.82;;
20986;SDS011;10652;50.306;8.570;2024-03-06T17:32:29;22.60;;;15.07;;
20986;SDS011;10652;50.306;8.570;2024-03-06T17:36:32;26.00;;;17.25;;
20986;SDS011;10652;50.306;8.570;2024-03-06T17:40:38;24.08;;;14.50;;
20986;SDS011;10652;50.306;8.570;2024-03-06T17:44:42;147.52;;;75.60;;
20986;SDS011;10652;50.306;8.570;2024-03-06T17:48:44;157.40;;;79.38;;
20986;SDS011;10652;50.306;8.570;2024-03-06T17:52:46;37.70;;;24.77;;
20986;SDS011;10652;50.306;8.570;2024-03-06T17:56:48;41.00;;;25.02;;
20986;SDS011;10652;50.306;8.570;2024-03-06T18:00:50;33.53;;;22.25;;
20986;SDS011;10652;50.306;8.570;2024-03-06T18:04:52;40.55;;;24.98;;
20986;SDS011;10652;50.306;8.570;2024-03-06T18:08:54;29.02;;;20.17;;
20986;SDS011;10652;50.306;8.570;2024-03-06T18:12:57;32.63;;;21.92;;
20986;SDS011;10652;50.306;8.570;2024-03-06T18:16:59;53.50;;;31.42;;
20986;SDS011;10652;50.306;8.570;2024-03-06T18:21:01;37.22;;;22.85;;
20986;SDS011;10652;50.306;8.570;2024-03-06T18:25:06;44.83;;;28.05;;
20986;SDS011;10652;50.306;8.570;2024-03-06T18:29:08;156.52;;;95.18;;
20986;SDS011;10652;50.306;8.570;2024-03-06T18:33:11;40.72;;;29.23;;
20986;SDS011;10652;50.306;8.570;2024-03-06T18:37:13;44.03;;;32.63;;
20986;SDS011;10652;50.306;8.570;2024-03-06T18:41:15;33.03;;;21.35;;
20986;SDS011;10652;50.306;8.570;2024-03-06T18:45:19;56.05;;;36.05;;
20986;SDS011;10652;50.306;8.570;2024-03-06T18:49:21;31.70;;;23.00;;
20986;SDS011;10652;50.306;8.570;2024-03-06T18:53:23;45.67;;;30.10;;
20986;SDS011;10652;50.306;8.570;2024-03-06T18:57:26;30.85;;;19.48;;
20986;SDS011;10652;50.306;8.570;2024-03-06T19:01:28;35.45;;;24.10;;
20986;SDS011;10652;50.306;8.570;2024-03-06T19:05:30;34.35;;;21.33;;
20986;SDS011;10652;50.306;8.570;2024-03-06T19:09:33;28.08;;;19.30;;
20986;SDS011;10652;50.306;8.570;2024-03-06T19:13:36;28.95;;;18.08;;
20986;SDS011;10652;50.306;8.570;2024-03-06T19:17:38;27.13;;;18.13;;
20986;SDS011;10652;50.306;8.570;2024-03-06T19:21:40;26.35;;;17.88;;
20986;SDS011;10652;50.306;8.570;2024-03-06T19:25:43;25.33;;;16.90;;
20986;SDS011;10652;50.306;8.570;2024-03-06T19:29:45;24.90;;;17.10;;
20986;SDS011;10652;50.306;8.570;2024-03-06T19:33:47;25.90;;;17.25;;
20986;SDS011;10652;50.306;8.570;2024-03-06T19:37:49;26.75;;;17.55;;
20986;SDS011;10652;50.306;8.570;2024-03-06T19:41:51;25.73;;;16.58;;
20986;SDS011;10652;50.306;8.570;2024-03-06T19:45:55;22.38;;;15.27;;
20986;SDS011;10652;50.306;8.570;2024-03-06T19:49:57;27.02;;;17.98;;
20986;SDS011;10652;50.306;8.570;2024-03-06T19:53:59;26.63;;;18.10;;
20986;SDS011;10652;50.306;8.570;2024-03-06T19:58:01;24.70;;;16.85;;
20986;SDS011;10652;50.306;8.570;2024-03-06T20:02:05;27.63;;;18.42;;
20986;SDS011;10652;50.306;8.570;2024-03-06T20:06:07;29.83;;;19.00;;
20986;SDS011;10652;50.306;8.570;2024-03-06T20:10:09;29.38;;;18.02;;
20986;SDS011;10652;50.306;8.570;2024-03-06T20:14:12;28.75;;;18.13;;
20986;SDS011;10652;50.306;8.570;2024-03-06T20:18:15;25.67;;;17.90;;
20986;SDS011;10652;50.306;8.570;2024-03-06T20:22:17;29.20;;;18.55;;
20986;SDS011;10652;50.306;8.570;2024-03-06T20:26:19;29.02;;;18.45;;
20986;SDS011;10652;50.306;8.570;2024-03-06T20:30:21;27.80;;;18.63;;
20986;SDS011;10652;50.306;8.570;2024-03-06T20:34:23;30.42;;;18.70;;
20986;SDS011;10652;50.306;8.570;2024-03-06T20:38:25;30.67;;;18.67;;
20986;SDS011;10652;50.306;8.570;2024-03-06T20:42:27;29.45;;;19.90;;
20986;SDS011;10652;50.306;8.570;2024-03-06T20:46:30;28.73;;;18.13;;
20986;SDS011;10652;50.306;8.570;2024-03-06T20:50:33;29.45;;;19.15;;
20986;SDS011;10652;50.306;8.570;2024-03-06T20:54:36;29.90;;;18.80;;
20986;SDS011;10652;50.306;8.570;2024-03-06T20:58:38;28.33;;;18.33;;
20986;SDS011;10652;50.306;8.570;2024-03-06T21:02:40;27.77;;;18.13;;
20986;SDS011;10652;50.306;8.570;2024-03-06T21:06:42;26.75;;;18.35;;
20986;SDS011;10652;50.306;8.570;2024-03-06T21:10:44;29.67;;;19.10;;
20986;SDS011;10652;50.306;8.570;2024-03-06T21:14:47;26.58;;;17.85;;
20986;SDS011;10652;50.306;8.570;2024-03-06T21:18:49;29.98;;;19.80;;
20986;SDS011;10652;50.306;8.570;2024-03-06T21:22:51;26.70;;;18.48;;
20986;SDS011;10652;50.306;8.570;2024-03-06T21:26:53;30.88;;;19.17;;
20986;SDS011;10652;50.306;8.570;2024-03-06T21:30:55;30.95;;;19.83;;
20986;SDS011;10652;50.306;8.570;2024-03-06T21:34:57;28.73;;;18.23;;
20986;SDS011;10652;50.306;8.570;2024-03-06T21:39:00;31.45;;;18.98;;
20986;SDS011;10652;50.306;8.570;2024-03-06T21:43:06;30.25;;;19.40;;
20986;SDS011;10652;50.306;8.570;2024-03-06T21:47:08;37.53;;;22.40;;
20986;SDS011;10652;50.306;8.570;2024-03-06T21:51:10;54.67;;;28.38;;
20986;SDS011;10652;50.306;8.570;2024-03-06T21:55:12;46.83;;;26.17;;
20986;SDS011;10652;50.306;8.570;2024-03-06T21:59:15;28.48;;;19.95;;
20986;SDS011;10652;50.306;8.570;2024-03-06T22:03:17;35.00;;;20.92;;
20986;SDS011;10652;50.306;8.570;2024-03-06T22:07:19;30.98;;;20.92;;
20986;SDS011;10652;50.306;8.570;2024-03-06T22:11:21;30.23;;;19.90;;
20986;SDS011;10652;50.306;8.570;2024-03-06T22:15:23;31.60;;;20.30;;
20986;SDS011;10652;50.306;8.570;2024-03-06T22:19:26;36.80;;;23.52;;
20986;SDS011;10652;50.306;8.570;2024-03-06T22:23:30;33.55;;;21.55;;
20986;SDS011;10652;50.306;8.570;2024-03-06T22:27:34;34.35;;;21.55;;
20986;SDS011;10652;50.306;8.570;2024-03-06T22:31:36;31.85;;;20.75;;
20986;SDS011;10652;50.306;8.570;2024-03-06T22:35:39;30.83;;;20.48;;
20986;SDS011;10652;50.306;8.570;2024-03-06T22:39:42;33.83;;;21.25;;
20986;SDS011;10652;50.306;8.570;2024-03-06T22:43:44;32.55;;;21.13;;
20986;SDS011;10652;50.306;8.570;2024-03-06T22:47:46;30.98;;;20.20;;
20986;SDS011;10652;50.306;8.570;2024-03-06T22:51:48;33.47;;;21.13;;
20986;SDS011;10652;50.306;8.570;2024-03-06T22:55:50;30.50;;;20.75;;
20986;SDS011;10652;50.306;8.570;2024-03-06T22:59:53;31.00;;;19.65;;
20986;SDS011;10652;50.306;8.570;2024-03-06T23:03:55;29.33;;;19.35;;
20986;SDS011;10652;50.306;8.570;2024-03-06T23:07:57;33.88;;;21.15;;
20986;SDS011;10652;50.306;8.570;2024-03-06T23:11:59;32.25;;;20.50;;
20986;SDS011;10652;50.306;8.570;2024-03-06T23:16:02;31.45;;;21.23;;
20986;SDS011;10652;50.306;8.570;2024-03-06T23:20:04;28.40;;;20.13;;
20986;SDS011;10652;50.306;8.570;2024-03-06T23:24:08;29.80;;;20.00;;
20986;SDS011;10652;50.306;8.570;2024-03-06T23:28:10;30.80;;;20.50;;
20986;SDS011;10652;50.306;8.570;2024-03-06T23:32:14;33.05;;;21.27;;
20986;SDS011;10652;50.306;8.570;2024-03-06T23:36:16;31.85;;;21.88;;
20986;SDS011;10652;50.306;8.570;2024-03-06T23:40:18;30.27;;;20.85;;
20986;SDS011;10652;50.306;8.570;2024-03-06T23:44:20;33.50;;;21.52;;
20986;SDS011;10652;50.306;8.570;2024-03-06T23:48:23;30.30;;;19.70;;
20986;SDS011;10652;50.306;8.570;2024-03-06T23:52:25;32.70;;;21.25;;
20986;SDS011;10652;50.306;8.570;2024-03-06T23:56:28;27.55;;;19.20;;
